sensor_id;sensor_type;location;lat;lon;timestamp;temperature;humidity
41762;DHT22;27441;50.860;0.258;2022-10-16T00:01:51;14.00;99.90
41762;DHT22;27441;50.860;0.258;2022-10-16T00:04:17;14.00;99.90
41762;DHT22;27441;50.860;0.258;2022-10-16T00:06:43;13.90;99.90
41762;DHT22;27441;50.860;0.258;2022-10-16T00:09:08;13.90;99.90
41762;DHT22;27441;50.860;0.258;2022-10-16T00:11:36;13.90;99.90
41762;DHT22;27441;50.860;0.258;2022-10-16T00:14:09;13.90;99.90
41762;DHT22;27441;50.860;0.258;2022-10-16T00:16:36;14.00;99.90
41762;DHT22;27441;50.860;0.258;2022-10-16T00:19:02;14.00;99.90
41762;DHT22;27441;50.860;0.258;2022-10-16T00:21:29;13.90;99.90
41762;DHT22;27441;50.860;0.258;2022-10-16T00:24:04;14.00;99.90
41762;DHT22;27441;50.860;0.258;2022-10-16T00:26:32;14.10;99.90
41762;DHT22;27441;50.860;0.258;2022-10-16T00:28:58;14.10;99.90
41762;DHT22;27441;50.860;0.258;2022-10-16T00:31:24;14.10;99.90
41762;DHT22;27441;50.860;0.258;2022-10-16T00:33:51;14.20;99.90
41762;DHT22;27441;50.860;0.258;2022-10-16T00:36:19;14.20;99.90
41762;DHT22;27441;50.860;0.258;2022-10-16T00:38:45;14.20;99.90
41762;DHT22;27441;50.860;0.258;2022-10-16T00:41:15;14.20;99.90
41762;DHT22;27441;50.860;0.258;2022-10-16T00:43:44;14.20;99.90
41762;DHT22;27441;50.860;0.258;2022-10-16T00:46:15;14.30;99.90
41762;DHT22;27441;50.860;0.258;2022-10-16T00:51:19;14.40;99.90
41762;DHT22;27441;50.860;0.258;2022-10-16T00:53:48;14.40;99.90
41762;DHT22;27441;50.860;0.258;2022-10-16T00:56:14;14.40;99.90
41762;DHT22;27441;50.860;0.258;2022-10-16T00:58:40;14.30;99.90
41762;DHT22;27441;50.860;0.258;2022-10-16T01:01:06;14.20;99.90
41762;DHT22;27441;50.860;0.258;2022-10-16T01:03:35;14.10;99.90
41762;DHT22;27441;50.860;0.258;2022-10-16T01:12:20;14.00;99.90
41762;DHT22;27441;50.860;0.258;2022-10-16T01:14:52;14.20;99.90
41762;DHT22;27441;50.860;0.258;2022-10-16T01:20:32;14.20;99.90
41762;DHT22;27441;50.860;0.258;2022-10-16T01:28:28;14.10;99.90
41762;DHT22;27441;50.860;0.258;2022-10-16T01:30:58;14.10;99.90
41762;DHT22;27441;50.860;0.258;2022-10-16T01:33:35;14.10;99.90
41762;DHT22;27441;50.860;0.258;2022-10-16T01:36:13;14.00;99.90
41762;DHT22;27441;50.860;0.258;2022-10-16T01:38:40;14.00;99.90
41762;DHT22;27441;50.860;0.258;2022-10-16T01:41:26;14.00;99.90
41762;DHT22;27441;50.860;0.258;2022-10-16T01:46:27;13.90;99.90
41762;DHT22;27441;50.860;0.258;2022-10-16T01:48:54;13.90;99.90
41762;DHT22;27441;50.860;0.258;2022-10-16T01:51:21;14.00;99.90
41762;DHT22;27441;50.860;0.258;2022-10-16T01:53:51;14.00;99.90
41762;DHT22;27441;50.860;0.258;2022-10-16T01:56:19;14.00;99.90
41762;DHT22;27441;50.860;0.258;2022-10-16T01:58:55;14.00;99.90
41762;DHT22;27441;50.860;0.258;2022-10-16T02:01:23;14.00;99.90
41762;DHT22;27441;50.860;0.258;2022-10-16T02:03:52;13.90;99.90
41762;DHT22;27441;50.860;0.258;2022-10-16T02:06:19;13.90;99.90
41762;DHT22;27441;50.860;0.258;2022-10-16T02:08:46;13.80;99.90
41762;DHT22;27441;50.860;0.258;2022-10-16T02:11:12;13.80;99.90
41762;DHT22;27441;50.860;0.258;2022-10-16T02:13:43;13.70;99.90
41762;DHT22;27441;50.860;0.258;2022-10-16T02:16:11;13.70;99.90
41762;DHT22;27441;50.860;0.258;2022-10-16T02:18:38;13.60;99.90
41762;DHT22;27441;50.860;0.258;2022-10-16T02:21:21;13.60;99.90
41762;DHT22;27441;50.860;0.258;2022-10-16T02:27:03;13.70;99.90
41762;DHT22;27441;50.860;0.258;2022-10-16T02:29:33;13.70;99.90
41762;DHT22;27441;50.860;0.258;2022-10-16T02:32:04;13.70;99.90
41762;DHT22;27441;50.860;0.258;2022-10-16T02:34:32;13.70;99.90
41762;DHT22;27441;50.860;0.258;2022-10-16T02:37:00;13.70;99.90
41762;DHT22;27441;50.860;0.258;2022-10-16T02:39:28;13.70;99.90
41762;DHT22;27441;50.860;0.258;2022-10-16T02:41:54;13.70;99.90
41762;DHT22;27441;50.860;0.258;2022-10-16T02:44:20;13.80;99.90
41762;DHT22;27441;50.860;0.258;2022-10-16T02:46:46;13.80;99.90
41762;DHT22;27441;50.860;0.258;2022-10-16T02:49:12;13.90;99.90
41762;DHT22;27441;50.860;0.258;2022-10-16T02:51:37;13.80;99.90
41762;DHT22;27441;50.860;0.258;2022-10-16T02:54:03;13.90;99.90
41762;DHT22;27441;50.860;0.258;2022-10-16T02:56:29;13.90;99.90
41762;DHT22;27441;50.860;0.258;2022-10-16T02:58:56;13.90;99.90
41762;DHT22;27441;50.860;0.258;2022-10-16T03:01:22;13.80;99.90
41762;DHT22;27441;50.860;0.258;2022-10-16T03:03:48;13.80;99.90
41762;DHT22;27441;50.860;0.258;2022-10-16T03:06:14;13.70;99.90
41762;DHT22;27441;50.860;0.258;2022-10-16T03:08:39;13.60;99.90
41762;DHT22;27441;50.860;0.258;2022-10-16T03:11:05;13.60;99.90
41762;DHT22;27441;50.860;0.258;2022-10-16T03:13:31;13.50;99.90
41762;DHT22;27441;50.860;0.258;2022-10-16T03:15:56;13.50;99.90
41762;DHT22;27441;50.860;0.258;2022-10-16T03:18:22;13.50;99.90
41762;DHT22;27441;50.860;0.258;2022-10-16T03:20:48;13.50;99.90
41762;DHT22;27441;50.860;0.258;2022-10-16T03:23:13;13.40;99.90
41762;DHT22;27441;50.860;0.258;2022-10-16T03:25:39;13.40;99.90
41762;DHT22;27441;50.860;0.258;2022-10-16T03:28:05;13.30;99.90
41762;DHT22;27441;50.860;0.258;2022-10-16T03:30:31;13.10;99.90
41762;DHT22;27441;50.860;0.258;2022-10-16T03:32:57;13.00;99.90
41762;DHT22;27441;50.860;0.258;2022-10-16T03:35:23;12.90;99.90
41762;DHT22;27441;50.860;0.258;2022-10-16T03:37:49;12.80;99.90
41762;DHT22;27441;50.860;0.258;2022-10-16T03:40:15;12.70;99.90
41762;DHT22;27441;50.860;0.258;2022-10-16T03:42:43;12.60;99.90
41762;DHT22;27441;50.860;0.258;2022-10-16T03:45:09;12.50;99.90
41762;DHT22;27441;50.860;0.258;2022-10-16T03:47:35;12.50;99.90
41762;DHT22;27441;50.860;0.258;2022-10-16T03:50:02;12.50;99.90
41762;DHT22;27441;50.860;0.258;2022-10-16T03:52:28;12.50;99.90
41762;DHT22;27441;50.860;0.258;2022-10-16T03:54:54;12.50;99.90
41762;DHT22;27441;50.860;0.258;2022-10-16T03:57:19;12.50;99.90
41762;DHT22;27441;50.860;0.258;2022-10-16T03:59:46;12.50;99.90
41762;DHT22;27441;50.860;0.258;2022-10-16T04:02:11;12.50;99.90
41762;DHT22;27441;50.860;0.258;2022-10-16T04:04:37;12.50;99.90
41762;DHT22;27441;50.860;0.258;2022-10-16T04:07:03;12.50;99.90
41762;DHT22;27441;50.860;0.258;2022-10-16T04:09:29;12.40;99.90
41762;DHT22;27441;50.860;0.258;2022-10-16T04:11:55;12.40;99.90
41762;DHT22;27441;50.860;0.258;2022-10-16T04:14:20;12.40;99.90
41762;DHT22;27441;50.860;0.258;2022-10-16T04:16:46;12.40;99.90
41762;DHT22;27441;50.860;0.258;2022-10-16T04:19:12;12.40;99.90
41762;DHT22;27441;50.860;0.258;2022-10-16T04:21:37;12.50;99.90
41762;DHT22;27441;50.860;0.258;2022-10-16T04:24:03;12.50;99.90
41762;DHT22;27441;50.860;0.258;2022-10-16T04:26:29;12.50;99.90
41762;DHT22;27441;50.860;0.258;2022-10-16T04:28:55;12.60;99.90
41762;DHT22;27441;50.860;0.258;2022-10-16T04:31:21;12.60;99.90
41762;DHT22;27441;50.860;0.258;2022-10-16T04:33:47;12.50;99.90
41762;DHT22;27441;50.860;0.258;2022-10-16T04:36:13;12.60;99.90
41762;DHT22;27441;50.860;0.258;2022-10-16T04:38:39;12.50;99.90
41762;DHT22;27441;50.860;0.258;2022-10-16T04:41:06;12.50;99.90
41762;DHT22;27441;50.860;0.258;2022-10-16T04:43:32;12.40;99.90
41762;DHT22;27441;50.860;0.258;2022-10-16T04:45:58;12.40;99.90
41762;DHT22;27441;50.860;0.258;2022-10-16T04:48:23;12.30;99.90
41762;DHT22;27441;50.860;0.258;2022-10-16T04:50:49;12.30;99.90
41762;DHT22;27441;50.860;0.258;2022-10-16T04:53:15;12.30;99.90
41762;DHT22;27441;50.860;0.258;2022-10-16T04:55:41;12.30;99.90
41762;DHT22;27441;50.860;0.258;2022-10-16T04:58:07;12.30;99.90
41762;DHT22;27441;50.860;0.258;2022-10-16T05:00:33;12.30;99.90
41762;DHT22;27441;50.860;0.258;2022-10-16T05:02:59;12.30;99.90
41762;DHT22;27441;50.860;0.258;2022-10-16T05:05:27;12.30;99.90
41762;DHT22;27441;50.860;0.258;2022-10-16T05:07:53;12.30;99.90
41762;DHT22;27441;50.860;0.258;2022-10-16T05:10:18;12.30;99.90
41762;DHT22;27441;50.860;0.258;2022-10-16T05:12:46;12.30;99.90
41762;DHT22;27441;50.860;0.258;2022-10-16T05:15:11;12.20;99.90
41762;DHT22;27441;50.860;0.258;2022-10-16T05:17:37;12.20;99.90
41762;DHT22;27441;50.860;0.258;2022-10-16T05:20:03;12.10;99.90
41762;DHT22;27441;50.860;0.258;2022-10-16T05:22:29;12.00;99.90
41762;DHT22;27441;50.860;0.258;2022-10-16T05:24:55;12.00;99.90
41762;DHT22;27441;50.860;0.258;2022-10-16T05:27:21;12.00;99.90
41762;DHT22;27441;50.860;0.258;2022-10-16T05:29:48;11.90;99.90
41762;DHT22;27441;50.860;0.258;2022-10-16T05:32:15;11.90;99.90
41762;DHT22;27441;50.860;0.258;2022-10-16T05:34:41;11.90;99.90
41762;DHT22;27441;50.860;0.258;2022-10-16T05:37:07;11.90;99.90
41762;DHT22;27441;50.860;0.258;2022-10-16T05:39:33;11.90;99.90
41762;DHT22;27441;50.860;0.258;2022-10-16T05:41:58;11.80;99.90
41762;DHT22;27441;50.860;0.258;2022-10-16T05:44:24;11.80;99.90
41762;DHT22;27441;50.860;0.258;2022-10-16T05:46:50;11.70;99.90
41762;DHT22;27441;50.860;0.258;2022-10-16T05:49:15;11.70;99.90
41762;DHT22;27441;50.860;0.258;2022-10-16T05:51:41;11.70;99.90
41762;DHT22;27441;50.860;0.258;2022-10-16T05:54:08;11.70;99.90
41762;DHT22;27441;50.860;0.258;2022-10-16T05:56:33;11.60;99.90
41762;DHT22;27441;50.860;0.258;2022-10-16T05:58:59;11.60;99.90
41762;DHT22;27441;50.860;0.258;2022-10-16T06:01:25;11.50;99.90
41762;DHT22;27441;50.860;0.258;2022-10-16T06:03:52;11.50;99.90
41762;DHT22;27441;50.860;0.258;2022-10-16T06:06:23;11.50;99.90
41762;DHT22;27441;50.860;0.258;2022-10-16T06:08:49;11.50;99.90
41762;DHT22;27441;50.860;0.258;2022-10-16T06:11:27;11.50;99.90
41762;DHT22;27441;50.860;0.258;2022-10-16T06:13:55;11.50;99.90
41762;DHT22;27441;50.860;0.258;2022-10-16T06:16:25;11.50;99.90
41762;DHT22;27441;50.860;0.258;2022-10-16T06:18:55;11.50;99.90
41762;DHT22;27441;50.860;0.258;2022-10-16T06:21:25;11.60;99.90
41762;DHT22;27441;50.860;0.258;2022-10-16T06:23:52;11.60;99.90
41762;DHT22;27441;50.860;0.258;2022-10-16T06:26:19;11.70;99.90
41762;DHT22;27441;50.860;0.258;2022-10-16T06:28:46;11.70;99.90
41762;DHT22;27441;50.860;0.258;2022-10-16T06:31:12;11.70;99.90
41762;DHT22;27441;50.860;0.258;2022-10-16T06:33:39;11.60;99.90
41762;DHT22;27441;50.860;0.258;2022-10-16T06:36:13;11.60;99.90
41762;DHT22;27441;50.860;0.258;2022-10-16T06:38:40;11.60;99.90
41762;DHT22;27441;50.860;0.258;2022-10-16T06:41:09;11.50;99.90
41762;DHT22;27441;50.860;0.258;2022-10-16T06:43:35;11.50;99.90
41762;DHT22;27441;50.860;0.258;2022-10-16T06:46:01;11.50;99.90
41762;DHT22;27441;50.860;0.258;2022-10-16T06:48:28;11.40;99.90
41762;DHT22;27441;50.860;0.258;2022-10-16T06:51:04;11.40;99.90
41762;DHT22;27441;50.860;0.258;2022-10-16T06:53:33;11.40;99.90
41762;DHT22;27441;50.860;0.258;2022-10-16T06:56:07;11.40;99.90
41762;DHT22;27441;50.860;0.258;2022-10-16T06:58:33;11.40;99.90
41762;DHT22;27441;50.860;0.258;2022-10-16T07:00:58;11.30;99.90
41762;DHT22;27441;50.860;0.258;2022-10-16T07:03:24;11.30;99.90
41762;DHT22;27441;50.860;0.258;2022-10-16T07:05:50;11.30;99.90
41762;DHT22;27441;50.860;0.258;2022-10-16T07:08:15;11.30;99.90
41762;DHT22;27441;50.860;0.258;2022-10-16T07:10:41;11.40;99.90
41762;DHT22;27441;50.860;0.258;2022-10-16T07:13:07;11.40;99.90
41762;DHT22;27441;50.860;0.258;2022-10-16T07:15:33;11.40;99.90
41762;DHT22;27441;50.860;0.258;2022-10-16T07:17:58;11.50;99.90
41762;DHT22;27441;50.860;0.258;2022-10-16T07:20:24;11.50;99.90
41762;DHT22;27441;50.860;0.258;2022-10-16T07:22:52;11.50;99.90
41762;DHT22;27441;50.860;0.258;2022-10-16T07:25:18;11.60;99.90
41762;DHT22;27441;50.860;0.258;2022-10-16T07:27:43;11.60;99.90
41762;DHT22;27441;50.860;0.258;2022-10-16T07:30:09;11.60;99.90
41762;DHT22;27441;50.860;0.258;2022-10-16T07:32:35;11.60;99.90
41762;DHT22;27441;50.860;0.258;2022-10-16T07:35:01;11.60;99.90
41762;DHT22;27441;50.860;0.258;2022-10-16T07:37:27;11.60;99.90
41762;DHT22;27441;50.860;0.258;2022-10-16T07:39:53;11.60;99.90
41762;DHT22;27441;50.860;0.258;2022-10-16T07:42:18;11.60;99.90
41762;DHT22;27441;50.860;0.258;2022-10-16T07:44:45;11.60;99.90
41762;DHT22;27441;50.860;0.258;2022-10-16T07:47:11;11.50;99.90
41762;DHT22;27441;50.860;0.258;2022-10-16T07:49:36;11.50;99.90
41762;DHT22;27441;50.860;0.258;2022-10-16T07:52:02;11.60;99.90
41762;DHT22;27441;50.860;0.258;2022-10-16T07:54:28;11.60;99.90
41762;DHT22;27441;50.860;0.258;2022-10-16T07:56:53;11.60;99.90
41762;DHT22;27441;50.860;0.258;2022-10-16T07:59:19;11.60;99.90
41762;DHT22;27441;50.860;0.258;2022-10-16T08:01:45;11.60;99.90
41762;DHT22;27441;50.860;0.258;2022-10-16T08:04:11;11.70;99.90
41762;DHT22;27441;50.860;0.258;2022-10-16T08:06:38;11.80;99.90
41762;DHT22;27441;50.860;0.258;2022-10-16T08:09:05;11.80;99.90
41762;DHT22;27441;50.860;0.258;2022-10-16T08:11:31;11.90;99.90
41762;DHT22;27441;50.860;0.258;2022-10-16T08:13:56;11.90;99.90
41762;DHT22;27441;50.860;0.258;2022-10-16T08:16:22;11.90;99.90
41762;DHT22;27441;50.860;0.258;2022-10-16T08:18:48;11.90;99.90
41762;DHT22;27441;50.860;0.258;2022-10-16T08:21:18;12.00;99.90
41762;DHT22;27441;50.860;0.258;2022-10-16T08:23:44;12.10;99.90
41762;DHT22;27441;50.860;0.258;2022-10-16T08:26:10;12.20;99.90
41762;DHT22;27441;50.860;0.258;2022-10-16T08:28:37;12.20;99.90
41762;DHT22;27441;50.860;0.258;2022-10-16T08:31:21;12.30;99.90
41762;DHT22;27441;50.860;0.258;2022-10-16T08:33:47;12.40;99.90
41762;DHT22;27441;50.860;0.258;2022-10-16T08:36:14;12.40;99.90
41762;DHT22;27441;50.860;0.258;2022-10-16T08:38:40;12.50;99.90
41762;DHT22;27441;50.860;0.258;2022-10-16T08:41:33;12.50;99.90
41762;DHT22;27441;50.860;0.258;2022-10-16T08:49:32;12.90;99.90
41762;DHT22;27441;50.860;0.258;2022-10-16T08:51:58;13.00;99.90
41762;DHT22;27441;50.860;0.258;2022-10-16T08:54:36;13.10;99.90
41762;DHT22;27441;50.860;0.258;2022-10-16T08:57:25;13.20;99.90
41762;DHT22;27441;50.860;0.258;2022-10-16T08:59:53;13.40;99.90
41762;DHT22;27441;50.860;0.258;2022-10-16T09:07:43;13.60;99.90
41762;DHT22;27441;50.860;0.258;2022-10-16T09:13:14;14.00;99.90
41762;DHT22;27441;50.860;0.258;2022-10-16T09:16:15;14.10;99.90
41762;DHT22;27441;50.860;0.258;2022-10-16T09:21:25;14.70;99.90
41762;DHT22;27441;50.860;0.258;2022-10-16T09:23:52;14.90;99.90
41762;DHT22;27441;50.860;0.258;2022-10-16T09:26:19;15.20;99.90
41762;DHT22;27441;50.860;0.258;2022-10-16T09:28:47;15.50;99.90
41762;DHT22;27441;50.860;0.258;2022-10-16T09:31:18;15.90;99.90
41762;DHT22;27441;50.860;0.258;2022-10-16T09:33:48;16.30;99.90
41762;DHT22;27441;50.860;0.258;2022-10-16T09:36:16;16.50;99.90
41762;DHT22;27441;50.860;0.258;2022-10-16T09:38:42;16.60;99.90
41762;DHT22;27441;50.860;0.258;2022-10-16T09:41:15;16.40;99.90
41762;DHT22;27441;50.860;0.258;2022-10-16T09:43:56;16.30;99.90
41762;DHT22;27441;50.860;0.258;2022-10-16T09:46:28;16.20;99.90
41762;DHT22;27441;50.860;0.258;2022-10-16T09:48:57;16.10;99.90
41762;DHT22;27441;50.860;0.258;2022-10-16T09:51:30;16.00;99.90
41762;DHT22;27441;50.860;0.258;2022-10-16T09:54:21;15.90;99.90
41762;DHT22;27441;50.860;0.258;2022-10-16T09:56:47;15.70;99.90
41762;DHT22;27441;50.860;0.258;2022-10-16T09:59:23;15.60;99.90
41762;DHT22;27441;50.860;0.258;2022-10-16T10:01:56;15.50;99.90
41762;DHT22;27441;50.860;0.258;2022-10-16T10:04:41;15.50;99.90
41762;DHT22;27441;50.860;0.258;2022-10-16T10:07:17;15.40;99.90
41762;DHT22;27441;50.860;0.258;2022-10-16T10:09:44;15.40;99.90
41762;DHT22;27441;50.860;0.258;2022-10-16T10:12:30;15.30;99.90
41762;DHT22;27441;50.860;0.258;2022-10-16T10:15:12;15.30;99.90
41762;DHT22;27441;50.860;0.258;2022-10-16T10:17:52;15.10;99.90
41762;DHT22;27441;50.860;0.258;2022-10-16T10:22:49;15.10;99.90
41762;DHT22;27441;50.860;0.258;2022-10-16T10:30:50;15.00;99.90
41762;DHT22;27441;50.860;0.258;2022-10-16T10:41:40;15.20;99.90
41762;DHT22;27441;50.860;0.258;2022-10-16T10:44:27;15.20;99.90
41762;DHT22;27441;50.860;0.258;2022-10-16T10:47:10;15.20;99.90
41762;DHT22;27441;50.860;0.258;2022-10-16T10:49:50;15.20;99.90
41762;DHT22;27441;50.860;0.258;2022-10-16T10:52:59;15.20;99.90
41762;DHT22;27441;50.860;0.258;2022-10-16T10:58:08;15.20;99.90
41762;DHT22;27441;50.860;0.258;2022-10-16T11:06:18;15.40;99.90
41762;DHT22;27441;50.860;0.258;2022-10-16T11:09:13;15.40;99.90
41762;DHT22;27441;50.860;0.258;2022-10-16T11:11:52;15.40;99.90
41762;DHT22;27441;50.860;0.258;2022-10-16T11:14:41;15.40;99.90
41762;DHT22;27441;50.860;0.258;2022-10-16T11:17:19;15.40;99.90
41762;DHT22;27441;50.860;0.258;2022-10-16T11:27:44;15.30;99.90
41762;DHT22;27441;50.860;0.258;2022-10-16T11:30:23;15.30;99.90
41762;DHT22;27441;50.860;0.258;2022-10-16T11:35:53;15.20;99.90
41762;DHT22;27441;50.860;0.258;2022-10-16T11:46:38;15.10;99.90
41762;DHT22;27441;50.860;0.258;2022-10-16T11:49:18;15.20;99.90
41762;DHT22;27441;50.860;0.258;2022-10-16T11:54:31;15.40;99.90
41762;DHT22;27441;50.860;0.258;2022-10-16T11:57:01;15.50;99.90
41762;DHT22;27441;50.860;0.258;2022-10-16T12:00:02;15.50;99.90
41762;DHT22;27441;50.860;0.258;2022-10-16T12:02:40;15.60;99.90
41762;DHT22;27441;50.860;0.258;2022-10-16T12:07:59;15.80;99.90
41762;DHT22;27441;50.860;0.258;2022-10-16T12:10:29;15.90;99.90
41762;DHT22;27441;50.860;0.258;2022-10-16T12:12:57;16.00;99.90
41762;DHT22;27441;50.860;0.258;2022-10-16T12:15:27;16.10;99.90
41762;DHT22;27441;50.860;0.258;2022-10-16T12:17:53;16.10;99.90
41762;DHT22;27441;50.860;0.258;2022-10-16T12:20:21;16.10;99.90
41762;DHT22;27441;50.860;0.258;2022-10-16T12:25:21;16.30;99.90
41762;DHT22;27441;50.860;0.258;2022-10-16T12:27:58;16.30;99.90
41762;DHT22;27441;50.860;0.258;2022-10-16T12:30:26;16.30;99.90
41762;DHT22;27441;50.860;0.258;2022-10-16T12:33:28;16.30;99.90
41762;DHT22;27441;50.860;0.258;2022-10-16T12:35:55;16.20;99.90
41762;DHT22;27441;50.860;0.258;2022-10-16T12:38:26;16.20;99.90
41762;DHT22;27441;50.860;0.258;2022-10-16T12:41:01;16.20;99.90
41762;DHT22;27441;50.860;0.258;2022-10-16T12:43:45;16.20;99.90
41762;DHT22;27441;50.860;0.258;2022-10-16T12:48:39;16.10;99.90
41762;DHT22;27441;50.860;0.258;2022-10-16T12:51:19;16.10;99.90
41762;DHT22;27441;50.860;0.258;2022-10-16T12:54:00;16.00;99.90
41762;DHT22;27441;50.860;0.258;2022-10-16T12:59:34;16.00;99.90
41762;DHT22;27441;50.860;0.258;2022-10-16T13:05:00;16.00;99.90
41762;DHT22;27441;50.860;0.258;2022-10-16T13:07:53;16.00;99.90
41762;DHT22;27441;50.860;0.258;2022-10-16T13:10:23;16.00;99.90
41762;DHT22;27441;50.860;0.258;2022-10-16T13:13:14;16.00;99.90
41762;DHT22;27441;50.860;0.258;2022-10-16T13:18:52;15.90;99.90
41762;DHT22;27441;50.860;0.258;2022-10-16T13:21:31;15.90;99.90
41762;DHT22;27441;50.860;0.258;2022-10-16T13:29:32;15.90;99.90
41762;DHT22;27441;50.860;0.258;2022-10-16T13:32:01;15.80;99.90
41762;DHT22;27441;50.860;0.258;2022-10-16T13:34:32;15.80;99.90
41762;DHT22;27441;50.860;0.258;2022-10-16T13:36:58;15.70;99.90
41762;DHT22;27441;50.860;0.258;2022-10-16T13:39:25;15.70;99.90
41762;DHT22;27441;50.860;0.258;2022-10-16T13:42:09;15.70;99.90
41762;DHT22;27441;50.860;0.258;2022-10-16T13:44:49;15.70;99.90
41762;DHT22;27441;50.860;0.258;2022-10-16T13:47:18;15.70;99.90
41762;DHT22;27441;50.860;0.258;2022-10-16T13:49:44;15.70;99.90
41762;DHT22;27441;50.860;0.258;2022-10-16T13:52:20;15.60;99.90
41762;DHT22;27441;50.860;0.258;2022-10-16T13:54:47;15.60;99.90
41762;DHT22;27441;50.860;0.258;2022-10-16T13:57:14;15.60;99.90
41762;DHT22;27441;50.860;0.258;2022-10-16T13:59:41;15.60;99.90
41762;DHT22;27441;50.860;0.258;2022-10-16T14:02:26;15.60;99.90
41762;DHT22;27441;50.860;0.258;2022-10-16T14:04:55;15.60;99.90
41762;DHT22;27441;50.860;0.258;2022-10-16T14:07:25;15.60;99.90
41762;DHT22;27441;50.860;0.258;2022-10-16T14:09:53;15.60;99.90
41762;DHT22;27441;50.860;0.258;2022-10-16T14:12:19;15.70;99.90
41762;DHT22;27441;50.860;0.258;2022-10-16T14:14:55;15.60;99.90
41762;DHT22;27441;50.860;0.258;2022-10-16T14:17:33;15.60;99.90
41762;DHT22;27441;50.860;0.258;2022-10-16T14:20:04;15.60;99.90
41762;DHT22;27441;50.860;0.258;2022-10-16T14:22:36;15.60;99.90
41762;DHT22;27441;50.860;0.258;2022-10-16T14:25:28;15.60;99.90
41762;DHT22;27441;50.860;0.258;2022-10-16T14:28:14;15.50;99.90
41762;DHT22;27441;50.860;0.258;2022-10-16T14:31:01;15.50;99.90
41762;DHT22;27441;50.860;0.258;2022-10-16T14:36:14;15.40;99.90
41762;DHT22;27441;50.860;0.258;2022-10-16T14:39:04;15.40;99.90
41762;DHT22;27441;50.860;0.258;2022-10-16T14:41:32;15.40;99.90
41762;DHT22;27441;50.860;0.258;2022-10-16T14:44:05;15.40;99.90
41762;DHT22;27441;50.860;0.258;2022-10-16T14:46:41;15.40;99.90
41762;DHT22;27441;50.860;0.258;2022-10-16T14:51:37;15.50;99.90
41762;DHT22;27441;50.860;0.258;2022-10-16T14:54:04;15.40;99.90
41762;DHT22;27441;50.860;0.258;2022-10-16T14:56:42;15.40;99.90
41762;DHT22;27441;50.860;0.258;2022-10-16T14:59:17;15.30;99.90
41762;DHT22;27441;50.860;0.258;2022-10-16T15:01:45;15.20;99.90
41762;DHT22;27441;50.860;0.258;2022-10-16T15:04:12;15.30;99.90
41762;DHT22;27441;50.860;0.258;2022-10-16T15:06:38;15.30;99.90
41762;DHT22;27441;50.860;0.258;2022-10-16T15:09:03;15.20;99.90
41762;DHT22;27441;50.860;0.258;2022-10-16T15:11:31;15.20;99.90
41762;DHT22;27441;50.860;0.258;2022-10-16T15:13:58;15.20;99.90
41762;DHT22;27441;50.860;0.258;2022-10-16T15:16:24;15.20;99.90
41762;DHT22;27441;50.860;0.258;2022-10-16T15:18:50;15.20;99.90
41762;DHT22;27441;50.860;0.258;2022-10-16T15:21:33;15.20;99.90
41762;DHT22;27441;50.860;0.258;2022-10-16T15:24:00;15.20;99.90
41762;DHT22;27441;50.860;0.258;2022-10-16T15:26:27;15.10;99.90
41762;DHT22;27441;50.860;0.258;2022-10-16T15:28:53;15.10;99.90
41762;DHT22;27441;50.860;0.258;2022-10-16T15:31:20;15.00;99.90
41762;DHT22;27441;50.860;0.258;2022-10-16T15:33:50;15.00;99.90
41762;DHT22;27441;50.860;0.258;2022-10-16T15:36:25;14.90;99.90
41762;DHT22;27441;50.860;0.258;2022-10-16T15:38:51;15.00;99.90
41762;DHT22;27441;50.860;0.258;2022-10-16T15:41:17;14.90;99.90
41762;DHT22;27441;50.860;0.258;2022-10-16T15:43:42;15.00;99.90
41762;DHT22;27441;50.860;0.258;2022-10-16T15:46:11;15.00;99.90
41762;DHT22;27441;50.860;0.258;2022-10-16T15:48:40;15.00;99.90
41762;DHT22;27441;50.860;0.258;2022-10-16T15:51:07;15.00;99.90
41762;DHT22;27441;50.860;0.258;2022-10-16T15:53:34;15.10;99.90
41762;DHT22;27441;50.860;0.258;2022-10-16T15:56:07;15.10;99.90
41762;DHT22;27441;50.860;0.258;2022-10-16T15:58:33;15.10;99.90
41762;DHT22;27441;50.860;0.258;2022-10-16T16:01:00;15.10;99.90
41762;DHT22;27441;50.860;0.258;2022-10-16T16:03:28;15.10;99.90
41762;DHT22;27441;50.860;0.258;2022-10-16T16:05:54;15.10;99.90
41762;DHT22;27441;50.860;0.258;2022-10-16T16:08:20;15.20;99.90
41762;DHT22;27441;50.860;0.258;2022-10-16T16:10:59;15.20;99.90
41762;DHT22;27441;50.860;0.258;2022-10-16T16:13:24;15.20;99.90
41762;DHT22;27441;50.860;0.258;2022-10-16T16:15:50;15.10;99.90
41762;DHT22;27441;50.860;0.258;2022-10-16T16:18:15;15.00;99.90
41762;DHT22;27441;50.860;0.258;2022-10-16T16:20:41;15.00;99.90
41762;DHT22;27441;50.860;0.258;2022-10-16T16:23:07;15.00;99.90
41762;DHT22;27441;50.860;0.258;2022-10-16T16:25:33;15.00;99.90
41762;DHT22;27441;50.860;0.258;2022-10-16T16:27:58;15.00;99.90
41762;DHT22;27441;50.860;0.258;2022-10-16T16:30:24;15.00;99.90
41762;DHT22;27441;50.860;0.258;2022-10-16T16:32:50;15.10;99.90
41762;DHT22;27441;50.860;0.258;2022-10-16T16:35:16;15.00;99.90
41762;DHT22;27441;50.860;0.258;2022-10-16T16:37:42;15.00;99.90
41762;DHT22;27441;50.860;0.258;2022-10-16T16:40:07;15.00;99.90
41762;DHT22;27441;50.860;0.258;2022-10-16T16:42:33;15.00;99.90
41762;DHT22;27441;50.860;0.258;2022-10-16T16:44:59;14.90;99.90
41762;DHT22;27441;50.860;0.258;2022-10-16T16:47:25;14.80;99.90
41762;DHT22;27441;50.860;0.258;2022-10-16T16:49:51;14.80;99.90
41762;DHT22;27441;50.860;0.258;2022-10-16T16:52:17;14.70;99.90
41762;DHT22;27441;50.860;0.258;2022-10-16T16:54:43;14.80;99.90
41762;DHT22;27441;50.860;0.258;2022-10-16T16:57:11;14.70;99.90
41762;DHT22;27441;50.860;0.258;2022-10-16T16:59:37;14.70;99.90
41762;DHT22;27441;50.860;0.258;2022-10-16T17:02:03;14.70;99.90
41762;DHT22;27441;50.860;0.258;2022-10-16T17:04:29;14.70;99.90
41762;DHT22;27441;50.860;0.258;2022-10-16T17:06:55;14.60;99.90
41762;DHT22;27441;50.860;0.258;2022-10-16T17:09:21;14.60;99.90
41762;DHT22;27441;50.860;0.258;2022-10-16T17:11:47;14.60;99.90
41762;DHT22;27441;50.860;0.258;2022-10-16T17:14:14;14.60;99.90
41762;DHT22;27441;50.860;0.258;2022-10-16T17:16:40;14.60;99.90
41762;DHT22;27441;50.860;0.258;2022-10-16T17:19:15;14.60;99.90
41762;DHT22;27441;50.860;0.258;2022-10-16T17:21:41;14.60;99.90
41762;DHT22;27441;50.860;0.258;2022-10-16T17:24:07;14.60;99.90
41762;DHT22;27441;50.860;0.258;2022-10-16T17:26:34;14.60;99.90
41762;DHT22;27441;50.860;0.258;2022-10-16T17:29:03;14.60;99.90
41762;DHT22;27441;50.860;0.258;2022-10-16T17:31:31;14.60;99.90
41762;DHT22;27441;50.860;0.258;2022-10-16T17:33:58;14.60;99.90
41762;DHT22;27441;50.860;0.258;2022-10-16T17:36:25;14.60;99.90
41762;DHT22;27441;50.860;0.258;2022-10-16T17:38:51;14.60;99.90